Time;durP1;ratioP1;P1;durP2;ratioP2;P2;SDS_P1;SDS_P2;PMS_P1;PMS_P2;Temp;Humidity;BMP_temperature;BMP_pressure;BME280_temperature;BME280_humidity;BME280_pressure;Samples;Min_cycle;Max_cycle;Signal;HPM_P1;HPM_P2
2023/03/03 00:01:14;;;;;;;43.55;26.33;;;;;;;-3.17;100.00;101702.31;6211159;23;20024;-71
2023/03/03 00:03:40;;;;;;;44.35;26.00;;;;;;;-3.16;100.00;101706.66;6211863;23;20044;-72
2023/03/03 00:06:11;;;;;;;46.88;26.73;;;;;;;-3.18;100.00;101716.31;6196427;23;20024;-71
2023/03/03 00:08:38;;;;;;;46.33;25.30;;;;;;;-3.12;100.00;101720.53;6211499;23;20217;-72
2023/03/03 00:11:06;;;;;;;48.40;26.73;;;;;;;-3.09;100.00;101726.56;6212036;23;20353;-71
2023/03/03 00:13:39;;;;;;;39.15;23.92;;;;;;;-3.16;100.00;101724.19;6211734;23;20025;-71
2023/03/03 00:16:14;;;;;;;40.65;23.35;;;;;;;-3.26;100.00;101730.59;6211019;23;20029;-71
2023/03/03 00:18:50;;;;;;;41.90;24.25;;;;;;;-3.31;100.00;101729.00;6211067;23;20028;-70
2023/03/03 00:21:39;;;;;;;41.17;24.70;;;;;;;-3.30;100.00;101730.69;6211306;23;20465;-71
2023/03/03 00:24:22;;;;;;;39.63;23.70;;;;;;;-3.38;100.00;101735.28;6211753;23;20446;-71
2023/03/03 00:26:51;;;;;;;41.30;24.33;;;;;;;-3.33;100.00;101733.41;6210869;23;20074;-71
2023/03/03 00:29:29;;;;;;;43.33;23.08;;;;;;;-3.35;100.00;101719.47;6211166;23;20091;-71
2023/03/03 00:32:14;;;;;;;37.38;21.02;;;;;;;-3.36;100.00;101716.91;6210612;23;20017;-71
2023/03/03 00:34:41;;;;;;;36.38;21.20;;;;;;;-3.41;100.00;101709.19;6211026;23;20024;-71
2023/03/03 00:37:29;;;;;;;37.00;19.60;;;;;;;-3.40;100.00;101704.78;6211009;23;20032;-72
2023/03/03 00:40:08;;;;;;;38.28;20.63;;;;;;;-3.42;100.00;101704.81;6197174;23;20021;-71
2023/03/03 00:42:35;;;;;;;34.17;19.85;;;;;;;-3.41;100.00;101703.94;6134807;23;20099;-71
2023/03/03 00:45:21;;;;;;;38.13;20.35;;;;;;;-3.47;100.00;101709.34;6211965;23;20029;-71
2023/03/03 00:47:47;;;;;;;35.10;20.23;;;;;;;-3.48;100.00;101715.53;6198236;23;20357;-71
2023/03/03 00:50:26;;;;;;;36.38;20.45;;;;;;;-3.49;100.00;101700.66;6210361;23;20020;-71
2023/03/03 00:53:03;;;;;;;36.97;21.33;;;;;;;-3.42;100.00;101691.69;6210915;23;20017;-71
2023/03/03 00:55:31;;;;;;;40.10;21.27;;;;;;;-3.51;100.00;101691.16;6211226;23;20408;-70
2023/03/03 00:57:57;;;;;;;42.13;21.02;;;;;;;-3.49;100.00;101694.56;6209688;23;20092;-71
2023/03/03 01:00:24;;;;;;;34.22;19.50;;;;;;;-3.56;100.00;101704.38;6211093;23;21494;-71
2023/03/03 01:02:51;;;;;;;39.45;22.17;;;;;;;-3.55;100.00;101700.84;6211103;23;20299;-70
2023/03/03 01:05:18;;;;;;;36.53;21.40;;;;;;;-3.44;100.00;101690.06;6210178;23;20389;-71
2023/03/03 01:07:45;;;;;;;37.53;20.65;;;;;;;-3.44;100.00;101690.91;6210744;23;20100;-71
2023/03/03 01:10:12;;;;;;;37.05;20.33;;;;;;;-3.43;100.00;101691.75;6210461;23;20024;-71
2023/03/03 01:12:39;;;;;;;36.00;21.42;;;;;;;-3.46;100.00;101687.47;6210908;23;20025;-71
2023/03/03 01:15:08;;;;;;;35.75;20.65;;;;;;;-3.45;100.00;101685.69;6210991;23;20361;-71
2023/03/03 01:17:36;;;;;;;33.65;20.42;;;;;;;-3.46;100.00;101690.06;6209906;23;20360;-71
2023/03/03 01:20:03;;;;;;;33.72;19.20;;;;;;;-3.52;100.00;101690.25;6211793;23;20021;-72
2023/03/03 01:22:29;;;;;;;35.78;19.13;;;;;;;-3.49;100.00;101684.91;6211868;23;20016;-71
2023/03/03 01:24:56;;;;;;;35.78;18.75;;;;;;;-3.45;100.00;101683.06;6210375;23;20051;-71
2023/03/03 01:27:27;;;;;;;33.92;19.38;;;;;;;-3.46;100.00;101682.22;6209960;23;20461;-71
2023/03/03 01:29:55;;;;;;;37.33;20.50;;;;;;;-3.42;100.00;101688.22;6211113;23;20017;-71
2023/03/03 01:32:24;;;;;;;37.38;20.98;;;;;;;-3.42;100.00;101685.59;6200993;23;20078;-71
2023/03/03 01:34:50;;;;;;;35.20;19.30;;;;;;;-3.39;100.00;101673.25;6210012;23;20023;-71
2023/03/03 01:37:17;;;;;;;44.10;21.30;;;;;;;-3.47;100.00;101677.03;6210836;23;20025;-71
2023/03/03 02:35:55;;;;;;;48.20;25.70;;;;;;;-3.59;100.00;101678.22;6213361;22;20004;-70
2023/03/03 02:38:38;;;;;;;53.50;27.52;;;;;;;-3.53;100.00;101675.44;6240728;23;20013;-70
2023/03/03 02:41:12;;;;;;;52.42;28.50;;;;;;;-3.54;100.00;101671.09;6239050;23;20025;-71
2023/03/03 02:43:53;;;;;;;49.72;27.40;;;;;;;-3.56;100.00;101668.50;6239182;23;20015;-71
2023/03/03 02:46:19;;;;;;;49.92;28.35;;;;;;;-3.61;100.00;101673.03;6239598;23;20013;-71
2023/03/03 02:48:46;;;;;;;53.80;28.17;;;;;;;-3.66;100.00;101667.06;6240832;23;20185;-70
2023/03/03 02:51:15;;;;;;;57.55;30.52;;;;;;;-3.75;100.00;101671.75;6237652;23;20040;-70
2023/03/03 02:53:42;;;;;;;55.85;30.33;;;;;;;-3.76;100.00;101668.25;6239051;23;20044;-70
2023/03/03 02:56:08;;;;;;;54.95;29.20;;;;;;;-3.74;100.00;101674.31;6238819;23;20029;-70
2023/03/03 02:58:36;;;;;;;57.60;30.02;;;;;;;-3.73;100.00;101664.66;6239481;23;20020;-68
2023/03/03 03:01:04;;;;;;;56.40;30.75;;;;;;;-3.86;100.00;101661.53;6237248;23;20012;-69
2023/03/03 03:03:30;;;;;;;55.65;30.35;;;;;;;-3.72;100.00;101659.41;6239539;23;20009;-68
2023/03/03 03:05:57;;;;;;;57.85;30.70;;;;;;;-3.78;100.00;101659.56;6238830;23;20005;-68
2023/03/03 03:08:23;;;;;;;56.60;30.02;;;;;;;-3.74;100.00;101676.06;6220927;23;20016;-74
2023/03/03 03:10:50;;;;;;;57.53;30.00;;;;;;;-3.70;100.00;101677.69;6211959;23;20036;-73
2023/03/03 03:13:16;;;;;;;62.03;32.05;;;;;;;-3.96;100.00;101676.69;6205762;23;20044;-73
2023/03/03 03:15:46;;;;;;;62.10;32.50;;;;;;;-3.90;100.00;101679.13;6212366;23;20044;-73
2023/03/03 03:18:13;;;;;;;63.60;33.58;;;;;;;-3.82;100.00;101678.94;6213519;23;20037;-73
2023/03/03 03:20:40;;;;;;;62.05;31.88;;;;;;;-3.93;100.00;101678.34;6212985;23;20406;-73
2023/03/03 03:23:08;;;;;;;62.60;31.42;;;;;;;-3.85;100.00;101692.97;6212709;23;20104;-72
2023/03/03 03:25:36;;;;;;;63.58;32.10;;;;;;;-3.85;100.00;101692.13;6202192;23;20103;-74
2023/03/03 03:28:03;;;;;;;56.83;29.48;;;;;;;-3.92;100.00;101704.53;6185099;23;20056;-74
2023/03/03 03:30:30;;;;;;;58.17;30.20;;;;;;;-3.81;100.00;101693.75;6212087;23;20024;-74
2023/03/03 03:32:56;;;;;;;58.47;30.15;;;;;;;-3.78;100.00;101693.66;6211706;23;20063;-72
2023/03/03 03:35:23;;;;;;;62.25;31.42;;;;;;;-3.75;100.00;101692.72;6234900;23;20057;-69
2023/03/03 03:37:49;;;;;;;61.78;30.30;;;;;;;-3.89;100.00;101685.25;6240336;23;20026;-70
2023/03/03 03:40:16;;;;;;;61.05;29.55;;;;;;;-3.86;100.00;101701.75;6238937;23;20016;-69
2023/03/03 03:42:42;;;;;;;61.13;31.13;;;;;;;-3.88;100.00;101700.94;6241633;23;20035;-69
2023/03/03 03:45:14;;;;;;;59.88;30.23;;;;;;;-3.89;100.00;101709.69;6241130;23;20024;-68
2023/03/03 04:45:36;;;;;;;52.00;24.70;;;;;;;-4.11;100.00;101648.28;6136590;22;20640;31
2023/03/03 04:48:03;;;;;;;51.67;24.25;;;;;;;-4.13;100.00;101650.97;6121813;23;20033;-73
2023/03/03 04:50:30;;;;;;;49.95;24.50;;;;;;;-4.09;100.00;101655.22;6120643;23;20070;-73
2023/03/03 04:52:56;;;;;;;53.63;24.73;;;;;;;-4.09;100.00;101670.09;6123136;23;20018;-73
2023/03/03 04:55:23;;;;;;;49.78;23.67;;;;;;;-4.18;100.00;101665.94;6121879;23;20022;-73
2023/03/03 04:57:49;;;;;;;49.95;23.88;;;;;;;-4.15;100.00;101665.84;6121572;23;20513;-73
2023/03/03 05:00:16;;;;;;;54.50;24.80;;;;;;;-4.12;100.00;101657.91;6121433;23;20354;-74
2023/03/03 05:02:46;;;;;;;52.78;23.85;;;;;;;-4.10;100.00;101663.13;6122068;23;20051;-73
2023/03/03 05:05:13;;;;;;;53.63;24.73;;;;;;;-4.06;100.00;101655.13;6120425;23;20347;-72
2023/03/03 05:07:39;;;;;;;49.35;23.60;;;;;;;-4.05;100.00;101664.69;6120519;23;20328;-74
2023/03/03 05:10:07;;;;;;;47.40;22.70;;;;;;;-4.11;100.00;101654.38;6120994;23;20042;-73
2023/03/03 05:12:33;;;;;;;51.97;22.77;;;;;;;-4.13;100.00;101650.97;6121468;23;20052;-74
2023/03/03 05:15:00;;;;;;;41.03;22.05;;;;;;;-4.05;100.00;101642.88;6120989;23;20050;-74
2023/03/03 05:17:26;;;;;;;45.95;21.95;;;;;;;-4.12;100.00;101657.06;6120107;23;20029;-74
2023/03/03 05:19:56;;;;;;;45.25;21.63;;;;;;;-4.09;100.00;101656.97;6121315;23;20343;-73
2023/03/03 05:22:23;;;;;;;48.00;23.27;;;;;;;-4.13;100.00;101650.13;6118886;23;20408;-73
2023/03/03 05:24:50;;;;;;;47.80;22.98;;;;;;;-4.09;100.00;101649.97;6121573;23;20482;-73
2023/03/03 05:27:17;;;;;;;55.53;25.27;;;;;;;-4.11;100.00;101638.66;6138165;23;20026;-73
2023/03/03 05:29:43;;;;;;;52.00;24.63;;;;;;;-4.18;100.00;101637.13;6152170;23;20021;-73
2023/03/03 05:32:10;;;;;;;52.15;24.67;;;;;;;-4.13;100.00;101642.25;6125099;23;20026;-72
2023/03/03 05:34:36;;;;;;;50.15;24.63;;;;;;;-4.08;100.00;101648.19;6149848;23;20072;-74
2023/03/03 05:37:05;;;;;;;48.03;23.67;;;;;;;-4.14;100.00;101651.00;6151321;23;20036;-74
2023/03/03 05:39:33;;;;;;;49.13;22.75;;;;;;;-4.14;100.00;101656.22;6151492;23;20511;-73
2023/03/03 05:41:59;;;;;;;50.08;22.98;;;;;;;-4.29;100.00;101660.16;6124109;23;20021;-73
2023/03/03 05:44:26;;;;;;;43.97;20.80;;;;;;;-4.21;100.00;101667.78;6150513;23;20021;-72
2023/03/03 05:46:53;;;;;;;45.45;21.60;;;;;;;-4.21;100.00;101673.88;6131320;23;20118;-74
2023/03/03 05:49:19;;;;;;;51.85;22.38;;;;;;;-4.17;100.00;101674.66;6116502;23;20340;-73
2023/03/03 05:51:46;;;;;;;43.72;21.35;;;;;;;-4.18;100.00;101679.03;6122456;23;20020;-73
2023/03/03 05:54:12;;;;;;;43.55;20.85;;;;;;;-4.22;100.00;101679.19;6121553;23;20105;-73
2023/03/03 05:56:39;;;;;;;47.55;21.40;;;;;;;-4.09;100.00;101675.31;6120894;23;20032;-72
2023/03/03 05:59:05;;;;;;;43.20;22.13;;;;;;;-4.17;100.00;101685.13;6121806;23;20032;-71
2023/03/03 06:01:32;;;;;;;40.33;20.52;;;;;;;-4.15;100.00;101678.09;6121243;23;20028;-74
2023/03/03 06:03:59;;;;;;;53.13;24.73;;;;;;;-4.09;100.00;101680.56;6120936;23;20089;-73
2023/03/03 06:06:27;;;;;;;50.35;22.00;;;;;;;-4.10;100.00;101681.47;6121573;23;20098;-73
2023/03/03 06:08:53;;;;;;;44.13;20.98;;;;;;;-4.11;100.00;101690.22;6121540;23;20033;-73
2023/03/03 06:11:22;;;;;;;44.25;20.80;;;;;;;-4.06;100.00;101683.97;6120728;23;20045;-72
2023/03/03 06:13:49;;;;;;;51.60;22.02;;;;;;;-4.12;100.00;101676.25;6119770;23;20020;-72
2023/03/03 06:16:15;;;;;;;44.30;21.33;;;;;;;-4.14;100.00;101677.19;6123268;23;20032;-74
2023/03/03 06:18:42;;;;;;;46.95;21.75;;;;;;;-3.96;100.00;101673.22;6122086;23;20026;-73
2023/03/03 06:21:08;;;;;;;47.22;22.20;;;;;;;-3.98;100.00;101681.13;6122884;23;20042;-74
2023/03/03 06:23:35;;;;;;;45.13;21.73;;;;;;;-3.98;100.00;101690.75;6122518;23;20026;-74
2023/03/03 06:26:01;;;;;;;46.85;22.33;;;;;;;-4.10;100.00;101686.72;6122859;23;20101;-74
2023/03/03 06:28:28;;;;;;;40.95;19.70;;;;;;;-4.09;100.00;101693.66;6122340;23;20042;-74
2023/03/03 06:30:55;;;;;;;37.70;18.35;;;;;;;-4.14;100.00;101695.53;6121767;23;20028;-73
2023/03/03 06:33:22;;;;;;;40.78;17.73;;;;;;;-4.12;100.00;101705.09;6123680;23;20355;-74
2023/03/03 06:35:53;;;;;;;35.88;17.65;;;;;;;-4.09;100.00;101707.63;6123278;23;20028;-74
2023/03/03 06:38:20;;;;;;;36.45;16.70;;;;;;;-4.01;100.00;101708.25;6120887;23;20018;-73
2023/03/03 06:40:47;;;;;;;47.05;18.50;;;;;;;-4.09;100.00;101704.16;6122236;23;20041;-73
2023/03/03 06:43:13;;;;;;;38.33;18.45;;;;;;;-4.16;100.00;101707.84;6123908;23;20050;-74
2023/03/03 06:45:40;;;;;;;40.53;18.75;;;;;;;-4.01;100.00;101700.41;6120903;23;20503;-74
2023/03/03 06:48:07;;;;;;;42.97;18.60;;;;;;;-4.03;100.00;101701.38;6121809;23;20081;-73
2023/03/03 06:50:33;;;;;;;44.25;19.30;;;;;;;-4.01;100.00;101705.63;6121985;23;20102;-73
2023/03/03 06:53:09;;;;;;;45.42;19.75;;;;;;;-4.19;100.00;101706.16;6121666;23;20022;-73
2023/03/03 06:55:36;;;;;;;42.90;19.35;;;;;;;-4.13;100.00;101713.00;6120823;23;20459;-74
2023/03/03 06:58:12;;;;;;;45.58;20.08;;;;;;;-4.11;100.00;101721.66;6121909;23;20024;-73
2023/03/03 07:00:40;;;;;;;48.90;21.95;;;;;;;-4.05;100.00;101708.41;6121642;23;20026;-73
2023/03/03 07:03:13;;;;;;;52.33;21.67;;;;;;;-4.06;100.00;101728.50;6122198;23;20379;-74
2023/03/03 07:05:40;;;;;;;47.35;20.58;;;;;;;-4.07;100.00;101732.03;6120760;23;20037;-74
2023/03/03 08:52:46;;;;;;;26.45;13.27;;;;;;;-3.33;100.00;101774.53;6205806;22;20017;-73
2023/03/03 08:55:13;;;;;;;25.60;12.82;;;;;;;-3.28;100.00;101770.00;6210243;23;20079;-73
2023/03/03 08:57:39;;;;;;;24.83;12.32;;;;;;;-3.18;100.00;101767.97;6201985;23;20404;-73
2023/03/03 09:00:09;;;;;;;26.73;12.32;;;;;;;-3.05;100.00;101770.16;6211527;23;20031;-73
2023/03/03 09:02:36;;;;;;;30.30;12.13;;;;;;;-3.10;100.00;101765.97;6210903;23;20044;-73
2023/03/03 09:05:03;;;;;;;27.52;11.55;;;;;;;-3.15;100.00;101773.13;6210572;23;20031;-74
2023/03/03 09:07:30;;;;;;;26.65;12.48;;;;;;;-3.26;100.00;101768.19;6211579;23;20024;-74
2023/03/03 09:09:56;;;;;;;48.80;16.27;;;;;;;-3.13;100.00;101763.47;6211742;23;20446;-73
2023/03/03 09:12:32;;;;;;;27.67;12.90;;;;;;;-3.16;100.00;101760.91;6211259;23;20020;-73
2023/03/03 09:15:06;;;;;;;27.65;13.32;;;;;;;-3.30;100.00;101754.31;6209685;23;20119;-74
2023/03/03 09:17:34;;;;;;;29.33;12.15;;;;;;;-3.28;100.00;101757.72;6209410;23;20051;-74
2023/03/03 09:20:32;;;;;;;25.02;12.25;;;;;;;-3.09;100.00;101759.81;6211733;23;20044;-74
2023/03/03 09:23:35;;;;;;;26.15;12.13;;;;;;;-2.96;100.00;101755.03;6199283;23;20023;-73
2023/03/03 09:26:51;;;;;;;26.27;11.55;;;;;;;-2.76;100.00;101754.41;6210420;23;20096;-74
2023/03/03 09:29:30;;;;;;;25.00;10.45;;;;;;;-2.71;100.00;101755.13;6185739;23;20096;-74
2023/03/03 09:32:00;;;;;;;22.20;11.85;;;;;;;-2.60;100.00;101739.88;6211689;23;20040;-74
2023/03/03 09:34:41;;;;;;;25.88;12.00;;;;;;;-2.65;100.00;101754.91;6210860;23;20020;-74
2023/03/03 09:37:25;;;;;;;31.73;11.93;;;;;;;-2.46;100.00;101753.41;6211264;23;20025;-74
2023/03/03 09:39:56;;;;;;;26.30;12.18;;;;;;;-2.52;100.00;101743.09;6209380;23;20028;-73
2023/03/03 09:42:41;;;;;;;22.90;11.93;;;;;;;-2.51;100.00;101750.09;6209631;23;20219;-73
2023/03/03 09:45:32;;;;;;;24.50;12.50;;;;;;;-2.50;100.00;101759.69;6210524;23;20028;-74
2023/03/03 09:48:20;;;;;;;20.08;9.65;;;;;;;-2.58;100.00;101774.81;6208379;23;20024;-74
2023/03/03 09:50:58;;;;;;;23.23;11.18;;;;;;;-2.40;100.00;101768.13;6145319;23;20044;-74
2023/03/03 09:53:43;;;;;;;21.95;11.70;;;;;;;-2.47;100.00;101770.09;6210555;23;20044;-74
2023/03/03 09:56:33;;;;;;;21.42;11.38;;;;;;;-2.54;100.00;101768.59;6208089;23;20050;-73
2023/03/03 09:59:06;;;;;;;27.50;10.55;;;;;;;-2.50;100.00;101759.69;6210299;23;20358;-74
2023/03/03 10:02:14;;;;;;;24.92;11.55;;;;;;;-2.47;100.00;101749.06;6210069;23;20054;-73
2023/03/03 10:05:24;;;;;;;20.70;10.23;;;;;;;-2.33;100.00;101767.00;6209835;23;20095;-74
2023/03/03 10:08:10;;;;;;;25.15;11.40;;;;;;;-2.20;100.00;101764.81;6209623;23;20017;-74
2023/03/03 10:10:55;;;;;;;20.92;11.77;;;;;;;-2.21;100.00;101768.34;6209729;23;20021;-74
2023/03/03 10:14:03;;;;;;;22.98;10.85;;;;;;;-2.03;100.00;101765.06;6211033;23;20035;-74
2023/03/03 10:16:38;;;;;;;20.85;10.95;;;;;;;-2.20;100.00;101768.31;6137388;23;20426;-74
2023/03/03 10:19:24;;;;;;;30.55;11.57;;;;;;;-2.25;100.00;101770.22;6209916;23;20027;-74
2023/03/03 10:22:03;;;;;;;28.17;12.25;;;;;;;-2.24;100.00;101764.06;6209738;23;20044;-74
2023/03/03 10:24:51;;;;;;;24.95;10.80;;;;;;;-2.14;100.00;101754.09;6203367;23;20088;-73
2023/03/03 10:27:17;;;;;;;28.08;11.80;;;;;;;-2.09;100.00;101757.44;6209430;23;20457;-73
2023/03/03 10:30:06;;;;;;;26.13;11.32;;;;;;;-2.02;100.00;101750.19;6209405;23;20031;-73
2023/03/03 10:32:39;;;;;;;31.67;13.25;;;;;;;-2.30;100.00;101758.13;6209851;23;20092;-74
2023/03/03 10:35:34;;;;;;;24.67;10.52;;;;;;;-2.07;100.00;101760.84;6210105;23;20425;-74
2023/03/03 10:38:16;;;;;;;25.88;11.68;;;;;;;-2.13;100.00;101756.69;6208477;23;20027;-74
2023/03/03 10:41:09;;;;;;;28.15;12.98;;;;;;;-2.14;100.00;101749.69;6210175;23;20027;-74
2023/03/03 10:44:08;;;;;;;28.58;12.10;;;;;;;-1.82;100.00;101755.56;6208528;23;20020;-74
2023/03/03 10:46:49;;;;;;;41.65;13.23;;;;;;;-1.64;100.00;101754.06;6144430;23;20024;-73
2023/03/03 10:49:44;;;;;;;26.17;11.10;;;;;;;-1.66;100.00;101751.47;6211758;23;20031;-72
2023/03/03 10:52:32;;;;;;;29.17;12.13;;;;;;;-1.60;100.00;101750.41;6210453;23;20079;-74
2023/03/03 10:55:20;;;;;;;47.38;14.05;;;;;;;-1.67;100.00;101748.91;6211195;23;20021;-73
2023/03/03 10:57:57;;;;;;;28.65;14.23;;;;;;;-1.63;100.00;101751.38;6210958;23;20095;-73
2023/03/03 11:00:24;;;;;;;32.85;15.30;;;;;;;-1.64;100.00;101759.31;6209977;23;20353;-74
2023/03/03 11:03:09;;;;;;;44.30;15.70;;;;;;;-1.93;100.00;101755.09;6211094;23;20042;-74
2023/03/03 11:06:08;;;;;;;42.72;16.27;;;;;;;-2.06;100.00;101759.94;6178815;23;20004;-72
2023/03/03 11:08:39;;;;;;;33.55;15.10;;;;;;;-2.00;100.00;101754.44;6210693;23;20052;-72
2023/03/03 11:11:48;;;;;;;36.25;14.93;;;;;;;-1.88;100.00;101759.28;6239173;23;20009;-71
2023/03/03 11:14:35;;;;;;;34.22;15.07;;;;;;;-1.90;100.00;101752.38;6237020;23;20012;-72
2023/03/03 11:17:12;;;;;;;35.97;17.45;;;;;;;-1.70;100.00;101756.91;6237025;23;20012;-72
2023/03/03 11:19:52;;;;;;;39.20;17.08;;;;;;;-1.81;100.00;101757.31;6212648;23;20035;-71
2023/03/03 11:22:28;;;;;;;41.65;15.82;;;;;;;-1.57;100.00;101754.69;6238327;23;20056;-72
2023/03/03 11:25:05;;;;;;;34.10;16.55;;;;;;;-1.51;100.00;101759.72;6238515;23;19996;-72
2023/03/03 11:27:51;;;;;;;36.25;16.08;;;;;;;-1.53;100.00;101749.25;6238771;23;20005;-70
2023/03/03 11:30:39;;;;;;;39.85;17.15;;;;;;;-1.44;100.00;101756.81;6239262;23;20012;-71
2023/03/03 11:33:13;;;;;;;45.47;17.25;;;;;;;-1.32;100.00;101752.00;6226211;23;20009;-71
2023/03/03 11:36:03;;;;;;;43.72;17.67;;;;;;;-1.36;100.00;101747.78;6240128;23;20008;-72
2023/03/03 11:38:45;;;;;;;42.42;16.85;;;;;;;-1.44;100.00;101751.56;6239831;23;20079;-71
2023/03/03 11:41:30;;;;;;;35.63;17.23;;;;;;;-1.49;100.00;101750.84;6240818;23;20039;-70
2023/03/03 11:44:02;;;;;;;36.65;16.80;;;;;;;-1.69;100.00;101748.94;6238772;23;20036;-71
2023/03/03 11:46:41;;;;;;;32.28;15.18;;;;;;;-1.40;100.00;101739.13;6240498;23;20092;-72
2023/03/03 11:49:18;;;;;;;38.95;18.05;;;;;;;-1.46;100.00;101742.84;6238867;23;20016;-71
2023/03/03 11:52:06;;;;;;;34.35;16.50;;;;;;;-1.33;100.00;101742.38;6240500;23;20015;-71
2023/03/03 11:55:01;;;;;;;44.17;17.55;;;;;;;-1.63;100.00;101745.25;6240447;23;20052;-72
2023/03/03 11:57:52;;;;;;;36.25;16.67;;;;;;;-1.40;100.00;101745.25;6240500;23;20033;-71
2023/03/03 12:00:28;;;;;;;32.35;16.17;;;;;;;-1.39;100.00;101732.94;6239211;23;20028;-71
2023/03/03 12:03:09;;;;;;;38.08;17.15;;;;;;;-1.59;100.00;101727.56;6239989;23;20009;-72
2023/03/03 12:06:08;;;;;;;41.93;18.43;;;;;;;-1.49;100.00;101721.91;6227440;23;20005;-71
2023/03/03 12:08:47;;;;;;;;;;;;;;;-1.41;100.00;101725.09;6239299;23;20012;-72
2023/03/03 12:11:32;;;;;;;40.60;17.98;;;;;;;-1.19;100.00;101716.41;6240162;23;19924;-71
2023/03/03 12:14:27;;;;;;;43.63;18.55;;;;;;;-1.45;100.00;101707.72;6239586;23;20068;-71
2023/03/03 12:17:14;;;;;;;42.03;18.05;;;;;;;-1.52;100.00;101700.97;6239715;23;20024;-72
2023/03/03 12:19:52;;;;;;;44.85;18.38;;;;;;;-1.31;100.00;101703.69;6237748;23;20000;-71
2023/03/03 12:22:30;;;;;;;46.30;18.23;;;;;;;-1.33;100.00;101700.25;6239982;23;20056;-71
2023/03/03 12:25:24;;;;;;;38.88;18.67;;;;;;;-1.44;100.00;101698.91;6239905;23;20039;-70
2023/03/03 12:28:04;;;;;;;40.53;19.10;;;;;;;-1.55;100.00;101693.19;6239521;23;20001;-71
2023/03/03 12:31:03;;;;;;;42.28;18.45;;;;;;;-1.24;100.00;101686.72;6239808;23;20008;-71
2023/03/03 12:33:55;;;;;;;36.35;17.63;;;;;;;-1.27;100.00;101686.84;6239252;23;20017;-71
2023/03/03 12:36:56;;;;;;;48.08;17.88;;;;;;;-1.08;100.00;101689.63;6239152;23;20014;-72
2023/03/03 12:39:25;;;;;;;47.05;17.92;;;;;;;-0.89;100.00;101677.41;6213996;23;20051;-72
2023/03/03 12:42:03;;;;;;;37.10;16.00;;;;;;;-1.03;100.00;101672.69;6240770;23;20005;-70
2023/03/03 12:44:58;;;;;;;48.65;19.60;;;;;;;-1.19;100.00;101680.38;6238418;23;20024;-70
2023/03/03 12:47:28;;;;;;;35.38;16.52;;;;;;;-1.03;100.00;101672.69;6239580;23;20029;-71
2023/03/03 12:50:08;;;;;;;32.83;16.45;;;;;;;-0.92;100.00;101669.63;6239235;23;20004;-72
2023/03/03 12:52:54;;;;;;;39.97;17.85;;;;;;;-0.91;100.00;101666.94;6239682;23;20061;-71
2023/03/03 12:55:27;;;;;;;39.45;17.50;;;;;;;-0.76;100.00;101667.22;6239046;23;20005;-71
2023/03/03 12:58:29;;;;;;;37.80;16.45;;;;;;;-0.74;100.00;101668.03;6240018;23;20080;-71
2023/03/03 13:01:02;;;;;;;46.00;18.92;;;;;;;-0.76;100.00;101668.09;6161701;23;20035;-71
2023/03/03 13:03:52;;;;;;;38.55;18.15;;;;;;;-0.71;100.00;101667.88;6238996;23;20059;-72
2023/03/03 13:06:33;;;;;;;50.63;20.25;;;;;;;-0.80;100.00;101658.59;6218348;23;20032;-71
2023/03/03 13:09:24;;;;;;;39.10;18.60;;;;;;;-0.65;100.00;101649.19;6238302;23;20064;-72
2023/03/03 13:11:58;;;;;;;44.95;20.15;;;;;;;-0.69;100.00;101653.72;6238642;23;20009;-72
2023/03/03 13:14:50;;;;;;;41.85;17.05;;;;;;;-0.77;100.00;101655.84;6237103;23;20020;-72
2023/03/03 13:18:08;;;;;;;35.55;17.08;;;;;;;-0.74;100.00;101657.50;6238201;23;20005;-71
2023/03/03 13:20:49;;;;;;;49.63;19.85;;;;;;;-0.58;100.00;101650.63;6158012;23;20015;-72
2023/03/03 13:23:37;;;;;;;39.00;18.70;;;;;;;-0.67;100.00;101640.50;6239492;23;20011;-72
2023/03/03 13:29:28;;;;;;;40.70;19.25;;;;;;;-0.55;100.00;101642.59;6239646;22;20012;-74
2023/03/03 13:31:58;;;;;;;42.67;19.65;;;;;;;-0.61;100.00;101642.84;6239639;23;20027;-72
2023/03/03 13:35:05;;;;;;;40.88;18.25;;;;;;;-0.51;100.00;101640.69;6238376;23;20034;-72
2023/03/03 13:37:42;;;;;;;36.28;18.00;;;;;;;-0.52;100.00;101636.34;6225545;23;20060;-71
2023/03/03 13:40:11;;;;;;;37.92;18.05;;;;;;;-0.42;100.00;101637.66;6239286;23;20012;-71
2023/03/03 13:42:49;;;;;;;37.47;19.10;;;;;;;-0.53;100.00;101630.22;6239935;23;20001;-70
2023/03/03 13:45:34;;;;;;;40.47;19.50;;;;;;;-0.60;100.00;101631.41;6236792;23;20033;-72
2023/03/03 13:48:33;;;;;;;41.95;19.88;;;;;;;-0.49;100.00;101636.22;6238015;23;20000;-71
2023/03/03 13:51:13;;;;;;;55.80;21.40;;;;;;;-0.48;100.00;101638.78;6238818;23;20004;-72
2023/03/03 13:54:06;;;;;;;48.63;20.27;;;;;;;-0.56;100.00;101635.63;6238460;23;20012;-71
2023/03/03 13:57:02;;;;;;;38.30;19.13;;;;;;;-0.57;100.00;101620.75;6171373;23;20043;-72
2023/03/03 13:59:59;;;;;;;42.60;18.60;;;;;;;-0.50;100.00;101614.28;6213578;23;20011;-71
2023/03/03 14:03:03;;;;;;;41.88;20.33;;;;;;;-0.48;100.00;101601.88;6238629;23;20028;-72
2023/03/03 14:05:38;;;;;;;38.72;18.73;;;;;;;-0.37;100.00;101605.81;6238813;23;20088;-72
2023/03/03 14:08:14;;;;;;;40.92;19.08;;;;;;;-0.23;100.00;101611.31;6238880;23;20036;-72
2023/03/03 14:10:47;;;;;;;52.55;20.27;;;;;;;-0.19;100.00;101605.00;6237359;23;20039;-70
2023/03/03 14:13:28;;;;;;;45.38;19.27;;;;;;;-0.29;100.00;101611.63;6237979;23;20015;-72
2023/03/03 14:16:08;;;;;;;35.75;18.85;;;;;;;-0.53;100.00;101603.00;6239211;23;20013;-71
2023/03/03 14:19:01;;;;;;;40.75;19.65;;;;;;;-0.30;100.00;101601.97;6238054;23;20008;-70
2023/03/03 14:21:37;;;;;;;48.95;21.77;;;;;;;-0.35;100.00;101590.78;6229213;23;20035;-71
2023/03/03 14:24:12;;;;;;;41.75;21.25;;;;;;;-0.27;100.00;101589.50;6239387;23;20024;-72
2023/03/03 14:26:54;;;;;;;46.28;20.83;;;;;;;-0.28;100.00;101592.22;6239901;23;20008;-72
2023/03/03 14:29:30;;;;;;;32.85;17.88;;;;;;;-0.08;100.00;101584.28;6238452;23;20020;-72
2023/03/03 14:32:00;;;;;;;34.28;16.95;;;;;;;-0.11;100.00;101594.97;6237781;23;20005;-72
2023/03/03 14:34:37;;;;;;;34.20;17.17;;;;;;;-0.31;100.00;101595.00;6238335;23;20026;-72
2023/03/03 14:37:28;;;;;;;45.72;17.33;;;;;;;-0.36;100.00;101589.06;6239020;23;20012;-70
2023/03/03 14:40:10;;;;;;;30.55;15.52;;;;;;;-0.31;100.00;101587.09;6239215;23;20008;-72
2023/03/03 14:42:50;;;;;;;30.55;16.60;;;;;;;-0.33;100.00;101575.75;6238130;23;20038;-71
2023/03/03 14:45:39;;;;;;;34.55;17.30;;;;;;;-0.24;100.00;101577.97;6239892;23;20007;-72
2023/03/03 14:48:15;;;;;;;34.03;16.45;;;;;;;-0.31;100.00;101577.41;6238302;23;20013;-71
2023/03/03 14:50:50;;;;;;;29.35;15.25;;;;;;;-0.29;100.00;101574.72;6232532;23;20076;-71
2023/03/03 14:53:16;;;;;;;32.20;15.77;;;;;;;-0.25;100.00;101577.13;6239218;23;20073;-71
2023/03/03 14:55:45;;;;;;;32.85;15.07;;;;;;;-0.09;100.00;101566.72;6237617;23;20023;-71
2023/03/03 14:58:38;;;;;;;39.45;16.15;;;;;;;-0.01;100.00;101556.69;6238607;23;20052;-72
2023/03/03 15:01:06;;;;;;;36.42;16.25;;;;;;;-0.01;100.00;101556.69;6238346;23;20019;-72
2023/03/03 15:03:38;;;;;;;32.25;16.23;;;;;;;-0.04;100.00;101561.25;6240165;23;20020;-72
2023/03/03 15:06:11;;;;;;;33.05;17.35;;;;;;;-0.03;100.00;101563.81;6240461;23;20033;-71
2023/03/03 15:08:40;;;;;;;39.60;16.23;;;;;;;-0.12;100.00;101564.25;6241442;23;20001;-71
2023/03/03 15:11:31;;;;;;;40.85;16.83;;;;;;;-0.16;100.00;101560.00;6240885;23;20064;-72
2023/03/03 15:14:16;;;;;;;34.30;15.40;;;;;;;-0.23;100.00;101564.72;6239990;23;20068;-72
2023/03/03 15:16:46;;;;;;;30.00;16.15;;;;;;;-0.15;100.00;101561.75;6240052;23;20043;-71
2023/03/03 15:19:48;;;;;;;34.92;16.88;;;;;;;0.00;100.00;101561.03;6240524;23;20013;-70
2023/03/03 15:22:22;;;;;;;36.70;16.70;;;;;;;-0.16;100.00;101553.88;6239274;23;20004;-72
2023/03/03 15:25:02;;;;;;;32.88;17.20;;;;;;;-0.12;100.00;101543.16;6241454;23;20005;-71